createdAt,value
2019-03-19T00:04:17.083Z,99.90
2019-03-19T00:06:58.055Z,99.90
2019-03-19T00:18:46.197Z,99.90
2019-03-19T00:21:27.575Z,99.90
2019-03-19T00:36:24.065Z,99.90
2019-03-19T00:51:13.748Z,99.90
2019-03-19T00:56:37.629Z,99.90
2019-03-19T01:02:30.461Z,99.90
2019-03-19T01:11:25.647Z,99.90
2019-03-19T01:17:18.885Z,99.90
2019-03-19T01:23:11.613Z,99.90
2019-03-19T01:25:55.713Z,99.90
2019-03-19T01:34:40.387Z,99.90
2019-03-19T01:37:21.144Z,99.90
2019-03-19T01:46:06.660Z,99.90
2019-03-19T01:48:47.373Z,99.90
2019-03-19T01:51:28.312Z,99.90
2019-03-19T01:54:09.482Z,99.90
2019-03-19T01:56:49.964Z,99.90
2019-03-19T01:59:30.020Z,99.90
2019-03-19T02:02:11.150Z,99.90
2019-03-19T02:07:34.796Z,99.90
2019-03-19T02:10:16.002Z,99.90
2019-03-19T02:12:58.380Z,99.90
2019-03-19T02:15:39.008Z,99.90
2019-03-19T02:18:19.412Z,99.90
2019-03-19T02:23:47.284Z,99.90
2019-03-19T02:29:11.100Z,99.90
2019-03-19T02:31:51.930Z,99.90
2019-03-19T02:34:33.178Z,99.90
2019-03-19T02:37:14.269Z,99.90
2019-03-19T02:39:55.188Z,99.90
2019-03-19T02:45:20.483Z,99.90
2019-03-19T02:48:01.532Z,99.90
2019-03-19T02:50:42.409Z,99.90
2019-03-19T02:53:23.233Z,99.90
2019-03-19T02:56:04.674Z,99.90
2019-03-19T02:58:45.984Z,99.90
2019-03-19T03:01:26.922Z,99.90
2019-03-19T03:04:07.544Z,99.90
2019-03-19T03:06:48.581Z,99.90
2019-03-19T03:12:12.876Z,99.90
2019-03-19T03:14:53.656Z,99.90
2019-03-19T03:17:34.212Z,99.90
2019-03-19T03:20:14.948Z,99.90
2019-03-19T03:22:55.678Z,99.90
2019-03-19T03:25:37.026Z,99.90
2019-03-19T03:28:17.424Z,99.90
2019-03-19T03:30:58.149Z,99.90
2019-03-19T03:33:38.975Z,99.90
2019-03-19T03:36:19.825Z,99.90
2019-03-19T03:50:21.788Z,99.90
2019-03-19T03:53:03.341Z,99.90
2019-03-19T03:55:44.483Z,99.90
2019-03-19T03:58:25.399Z,99.90
2019-03-19T04:01:06.171Z,99.90
2019-03-19T04:03:47.155Z,99.90
2019-03-19T04:09:11.780Z,99.90
2019-03-19T04:11:52.531Z,99.90
2019-03-19T04:14:33.266Z,99.90
2019-03-19T04:17:14.155Z,99.90
2019-03-19T04:19:55.737Z,99.90
2019-03-19T04:22:36.738Z,99.90
2019-03-19T04:25:17.596Z,99.90
2019-03-19T04:27:58.782Z,99.90
2019-03-19T04:30:39.965Z,99.90
2019-03-19T04:33:20.814Z,99.90
2019-03-19T04:39:00.517Z,99.90
2019-03-19T04:41:41.870Z,99.90
2019-03-19T04:44:22.900Z,99.90
2019-03-19T04:47:03.651Z,99.90
2019-03-19T04:49:44.369Z,99.90
2019-03-19T04:52:24.670Z,99.90
2019-03-19T04:55:05.363Z,99.90
2019-03-19T04:57:45.851Z,99.90
2019-03-19T05:00:26.574Z,99.90
2019-03-19T05:05:51.644Z,99.90
2019-03-19T05:11:16.711Z,99.90
2019-03-19T05:13:57.386Z,99.90
2019-03-19T05:16:38.002Z,99.90
2019-03-19T05:19:18.831Z,99.90
2019-03-19T05:21:59.632Z,99.90
2019-03-19T05:24:28.336Z,99.90
2019-03-19T05:27:16.309Z,99.90
2019-03-19T05:33:11.850Z,99.90
2019-03-19T05:35:52.723Z,99.90
2019-03-19T05:38:34.306Z,99.90
2019-03-19T05:41:16.616Z,99.90
2019-03-19T05:43:58.496Z,99.90
2019-03-19T05:46:39.045Z,99.90
2019-03-19T05:49:07.794Z,99.90
2019-03-19T05:51:55.622Z,99.90
2019-03-19T05:54:37.033Z,99.90
2019-03-19T05:57:17.983Z,99.90
2019-03-19T05:59:58.843Z,99.90
2019-03-19T06:02:40.028Z,99.90
2019-03-19T06:05:21.383Z,99.90
2019-03-19T06:08:02.997Z,99.90
2019-03-19T06:10:43.877Z,99.90
2019-03-19T06:13:24.845Z,99.90
2019-03-19T06:16:05.754Z,99.90
2019-03-19T06:18:46.866Z,99.90
2019-03-19T06:21:27.275Z,99.90
2019-03-19T06:24:07.819Z,99.90
2019-03-19T06:26:48.804Z,99.90
2019-03-19T06:29:29.433Z,99.90
2019-03-19T06:32:10.760Z,99.90
2019-03-19T06:34:51.399Z,99.90
2019-03-19T06:37:32.183Z,99.90
2019-03-19T06:40:12.719Z,99.90
2019-03-19T06:42:54.931Z,99.90
2019-03-19T06:45:35.559Z,99.90
2019-03-19T06:48:16.390Z,99.90
2019-03-19T06:50:57.497Z,99.90
2019-03-19T06:53:38.531Z,99.90
2019-03-19T06:56:19.760Z,99.90
2019-03-19T06:59:00.605Z,99.90
2019-03-19T07:01:42.237Z,99.90
2019-03-19T07:04:23.256Z,99.90
2019-03-19T07:07:03.959Z,99.90
2019-03-19T07:09:45.434Z,99.90
2019-03-19T07:12:26.219Z,99.90
2019-03-19T07:15:07.373Z,99.90
2019-03-19T07:17:48.544Z,99.90
2019-03-19T07:20:30.051Z,99.90
2019-03-19T07:23:11.451Z,99.90
2019-03-19T07:25:55.497Z,99.90
2019-03-19T07:28:36.055Z,99.90
2019-03-19T07:31:16.733Z,99.90
2019-03-19T07:36:46.734Z,99.90
2019-03-19T07:42:11.903Z,99.90
2019-03-19T07:44:52.981Z,99.90
2019-03-19T07:47:34.300Z,99.90
2019-03-19T07:50:15.628Z,99.90
2019-03-19T07:52:56.038Z,99.90
2019-03-19T07:55:36.748Z,99.90
2019-03-19T07:58:17.452Z,99.90
2019-03-19T08:00:58.364Z,99.90
2019-03-19T08:03:39.002Z,99.90
2019-03-19T08:06:19.918Z,99.90
2019-03-19T08:09:01.143Z,99.90
2019-03-19T08:11:41.936Z,99.90
2019-03-19T08:14:22.524Z,99.90
2019-03-19T08:17:03.041Z,99.90
2019-03-19T08:19:44.112Z,99.90
2019-03-19T08:22:24.542Z,99.90
2019-03-19T08:25:05.263Z,99.90
2019-03-19T08:27:33.842Z,99.90
2019-03-19T08:30:41.063Z,99.90
2019-03-19T08:33:28.990Z,99.90
2019-03-19T08:36:09.972Z,99.90
2019-03-19T08:38:50.746Z,99.90
2019-03-19T08:41:31.645Z,99.90
2019-03-19T08:44:12.422Z,99.90
2019-03-19T08:46:53.088Z,99.90
2019-03-19T08:49:33.794Z,99.90
2019-03-19T08:52:18.214Z,99.90
2019-03-19T08:55:01.114Z,99.90
2019-03-19T08:57:41.646Z,99.90
2019-03-19T09:00:22.653Z,99.90
2019-03-19T09:03:03.751Z,99.90
2019-03-19T09:05:44.307Z,99.90
2019-03-19T09:08:25.172Z,99.90
2019-03-19T09:13:50.096Z,99.90
2019-03-19T09:16:30.994Z,99.90
2019-03-19T09:19:11.824Z,99.90
2019-03-19T09:21:52.316Z,99.90
2019-03-19T09:24:33.522Z,99.90
2019-03-19T09:27:14.563Z,99.90
2019-03-19T09:29:55.174Z,99.90
2019-03-19T09:32:36.092Z,99.90
2019-03-19T09:35:17.117Z,99.90
2019-03-19T09:37:59.188Z,99.90
2019-03-19T09:40:40.279Z,99.90
2019-03-19T09:43:21.308Z,99.90
2019-03-19T09:46:02.107Z,99.90
2019-03-19T09:48:42.936Z,99.90
2019-03-19T09:51:23.494Z,99.90
2019-03-19T09:54:05.564Z,99.90
2019-03-19T09:56:46.380Z,99.90
2019-03-19T09:59:27.487Z,99.90
2019-03-19T10:02:08.784Z,99.90
2019-03-19T10:04:49.344Z,99.90
2019-03-19T10:07:29.950Z,99.90
2019-03-19T10:10:10.602Z,99.90
2019-03-19T10:12:51.424Z,99.90
2019-03-19T10:15:31.776Z,99.90
2019-03-19T10:18:12.639Z,99.90
2019-03-19T10:20:52.987Z,99.90
2019-03-19T10:26:29.805Z,99.90
2019-03-19T10:29:10.756Z,99.90
2019-03-19T10:31:51.779Z,99.90
2019-03-19T10:34:32.819Z,99.90
2019-03-19T10:37:14.301Z,99.90
2019-03-19T10:39:54.727Z,99.90
2019-03-19T10:42:35.612Z,99.90
2019-03-19T10:47:59.971Z,99.90
2019-03-19T10:53:25.457Z,99.90
2019-03-19T10:58:51.598Z,99.90
2019-03-19T11:01:33.411Z,99.90
2019-03-19T11:04:15.337Z,99.90
2019-03-19T11:06:56.281Z,99.90
2019-03-19T11:09:36.873Z,99.90
2019-03-19T11:12:17.533Z,99.90
2019-03-19T11:14:59.403Z,99.90
2019-03-19T11:17:40.668Z,99.90
2019-03-19T11:20:22.628Z,96.50
2019-03-19T11:23:03.726Z,96.30
2019-03-19T11:25:54.140Z,91.40
2019-03-19T11:28:27.409Z,90.50
2019-03-19T11:31:08.203Z,84.90
2019-03-19T11:33:49.097Z,85.10
2019-03-19T11:36:30.164Z,88.70
2019-03-19T11:39:10.819Z,91.40
2019-03-19T11:41:52.235Z,93.50
2019-03-19T11:44:32.891Z,93.70
2019-03-19T11:47:14.161Z,93.50
2019-03-19T11:49:55.015Z,94.60
2019-03-19T11:52:35.834Z,95.90
2019-03-19T11:55:16.968Z,95.80
2019-03-19T11:57:57.980Z,96.20
2019-03-19T12:00:42.857Z,95.40
2019-03-19T12:03:25.100Z,95.70
2019-03-19T12:06:07.438Z,96.50
2019-03-19T12:08:48.697Z,95.40
2019-03-19T12:11:29.065Z,95.20
2019-03-19T12:13:57.828Z,94.30
2019-03-19T12:16:45.756Z,96.10
2019-03-19T12:19:26.578Z,99.80
2019-03-19T12:28:23.794Z,99.90
2019-03-19T12:31:04.690Z,99.90
2019-03-19T12:33:45.339Z,99.90
2019-03-19T12:36:26.164Z,99.90
2019-03-19T12:39:09.525Z,99.90
2019-03-19T12:41:49.718Z,99.90
2019-03-19T12:44:30.415Z,99.90
2019-03-19T12:47:11.492Z,99.90
2019-03-19T12:49:52.207Z,99.90
2019-03-19T12:52:32.752Z,99.90
2019-03-19T12:55:13.583Z,99.90
2019-03-19T12:57:54.935Z,99.90
2019-03-19T13:00:36.795Z,99.90
2019-03-19T13:03:17.564Z,99.90
2019-03-19T13:05:58.391Z,99.90
2019-03-19T13:08:39.132Z,99.90
2019-03-19T13:17:35.470Z,99.90
2019-03-19T13:20:16.009Z,99.90
2019-03-19T13:22:56.645Z,99.90
2019-03-19T13:25:37.873Z,99.90
2019-03-19T13:28:18.776Z,99.90
2019-03-19T13:30:59.943Z,99.90
2019-03-19T13:33:40.977Z,99.90
2019-03-19T13:36:22.240Z,99.90
2019-03-19T13:39:02.799Z,99.90
2019-03-19T13:41:44.719Z,99.90
2019-03-19T13:44:25.579Z,99.90
2019-03-19T13:47:06.417Z,99.90
2019-03-19T13:56:11.520Z,99.90
2019-03-19T13:58:40.215Z,99.90
2019-03-19T14:01:28.137Z,99.90
2019-03-19T14:04:16.081Z,99.90
2019-03-19T14:06:57.101Z,99.90
2019-03-19T14:09:37.852Z,99.90
2019-03-19T14:12:06.410Z,99.90
2019-03-19T14:14:54.376Z,99.90
2019-03-19T14:20:21.758Z,99.90
2019-03-19T14:23:02.304Z,99.90
2019-03-19T14:25:42.786Z,99.90
2019-03-19T14:28:23.634Z,99.90
2019-03-19T14:31:08.917Z,99.90
2019-03-19T14:36:32.009Z,97.50
2019-03-19T14:39:13.036Z,96.10
2019-03-19T14:41:53.941Z,95.70
2019-03-19T14:44:34.765Z,96.90
2019-03-19T14:47:15.791Z,96.40
2019-03-19T14:49:56.844Z,96.80
2019-03-19T14:52:37.869Z,96.60
2019-03-19T14:55:19.127Z,97.80
2019-03-19T14:57:59.649Z,99.50
2019-03-19T15:00:40.396Z,99.90
2019-03-19T15:03:21.419Z,99.90
2019-03-19T15:06:02.055Z,99.90
2019-03-19T15:08:42.927Z,99.90
2019-03-19T15:11:23.828Z,99.90
2019-03-19T15:14:04.994Z,99.90
2019-03-19T15:16:45.581Z,99.90
2019-03-19T15:19:26.424Z,99.90
2019-03-19T15:22:07.755Z,99.90
2019-03-19T15:24:48.158Z,99.90
2019-03-19T15:27:28.796Z,99.90
2019-03-19T15:32:55.984Z,99.90
2019-03-19T15:35:36.858Z,99.90
2019-03-19T15:38:17.478Z,99.90
2019-03-19T15:40:58.196Z,99.90
2019-03-19T15:43:38.812Z,99.90
2019-03-19T15:46:19.466Z,99.90
2019-03-19T15:49:00.581Z,99.90
2019-03-19T15:51:41.224Z,99.90
2019-03-19T15:57:05.294Z,99.90
2019-03-19T15:59:45.646Z,99.90
2019-03-19T16:02:26.785Z,99.90
2019-03-19T16:05:07.392Z,99.90
2019-03-19T16:07:48.398Z,99.90
2019-03-19T16:10:29.180Z,99.90
2019-03-19T16:13:09.777Z,99.90
2019-03-19T16:15:50.584Z,99.90
2019-03-19T16:18:31.433Z,99.90
2019-03-19T16:23:56.105Z,99.90
2019-03-19T16:26:37.485Z,99.90
2019-03-19T16:29:18.596Z,99.90
2019-03-19T16:31:59.654Z,99.90
2019-03-19T16:34:40.521Z,99.90
2019-03-19T16:37:21.375Z,99.90
2019-03-19T16:40:02.626Z,99.90
2019-03-19T16:42:43.177Z,99.90
2019-03-19T16:45:23.940Z,99.90
2019-03-19T16:48:04.786Z,99.90
2019-03-19T16:50:46.057Z,99.90
2019-03-19T16:53:26.519Z,99.90
2019-03-19T16:56:08.043Z,99.90
2019-03-19T16:58:48.930Z,99.90
2019-03-19T17:04:29.104Z,99.90
2019-03-19T17:07:09.855Z,99.90
2019-03-19T17:12:42.067Z,99.90
2019-03-19T17:15:22.627Z,99.90
2019-03-19T17:18:04.129Z,99.90
2019-03-19T17:23:31.526Z,99.90
2019-03-19T17:26:15.847Z,99.90
2019-03-19T17:28:56.511Z,99.90
2019-03-19T17:31:37.810Z,99.90
2019-03-19T17:34:19.196Z,99.90
2019-03-19T17:37:00.161Z,99.90
2019-03-19T17:39:41.138Z,99.90
2019-03-19T17:42:22.027Z,99.90
2019-03-19T17:45:03.027Z,99.90
2019-03-19T17:50:29.879Z,99.90
2019-03-19T17:58:42.639Z,99.90
2019-03-19T18:01:24.467Z,99.90
2019-03-19T18:06:48.593Z,99.90
2019-03-19T18:09:29.665Z,99.90
2019-03-19T18:12:10.623Z,99.90
2019-03-19T18:14:51.417Z,99.90
2019-03-19T18:17:32.283Z,99.90
2019-03-19T18:20:13.214Z,99.90
2019-03-19T18:22:53.935Z,99.90
2019-03-19T18:25:34.532Z,99.90
2019-03-19T18:28:16.330Z,99.90
2019-03-19T18:30:57.334Z,99.90
2019-03-19T18:33:37.915Z,99.90
2019-03-19T18:36:18.545Z,99.90
2019-03-19T18:38:59.164Z,99.90
2019-03-19T18:41:39.646Z,99.90
2019-03-19T18:44:19.986Z,99.90
2019-03-19T18:47:00.588Z,99.90
2019-03-19T18:49:41.476Z,99.90
2019-03-19T18:52:21.916Z,99.90
2019-03-19T18:55:02.550Z,99.90
2019-03-19T18:57:45.148Z,99.90
2019-03-19T19:00:25.538Z,99.90
2019-03-19T19:03:06.732Z,99.90
2019-03-19T19:05:47.599Z,99.90
2019-03-19T19:08:28.590Z,99.90
2019-03-19T19:17:13.152Z,99.90
2019-03-19T19:19:53.908Z,99.90
2019-03-19T19:22:34.744Z,99.90
2019-03-19T19:25:15.471Z,99.90
2019-03-19T19:27:44.152Z,99.90
2019-03-19T19:30:32.188Z,99.90
2019-03-19T19:33:13.242Z,99.90
2019-03-19T19:38:38.367Z,99.90
2019-03-19T19:41:20.072Z,99.90
2019-03-19T19:44:01.682Z,99.90
2019-03-19T19:46:42.433Z,99.90
2019-03-19T19:49:23.201Z,99.90
2019-03-19T19:52:04.017Z,99.90
2019-03-19T19:54:44.972Z,99.90
2019-03-19T19:57:25.675Z,99.90
2019-03-19T20:00:06.131Z,99.90
2019-03-19T20:02:46.859Z,99.90
2019-03-19T20:05:27.961Z,99.90
2019-03-19T20:08:08.921Z,99.90
2019-03-19T20:10:49.377Z,99.90
2019-03-19T20:13:30.057Z,99.90
2019-03-19T20:16:10.557Z,99.90
2019-03-19T20:18:52.259Z,99.90
2019-03-19T20:21:32.911Z,99.90
2019-03-19T20:24:13.606Z,99.90
2019-03-19T20:42:02.062Z,99.90
2019-03-19T20:44:42.894Z,99.90
2019-03-19T20:47:24.057Z,99.90
2019-03-19T20:50:04.716Z,99.90
2019-03-19T20:52:45.687Z,99.90
2019-03-19T20:55:26.462Z,99.90
2019-03-19T20:58:07.142Z,99.90
2019-03-19T21:00:48.017Z,99.90
2019-03-19T21:03:35.969Z,99.90
2019-03-19T21:06:11.513Z,99.90
2019-03-19T21:08:52.363Z,99.90
2019-03-19T21:11:34.663Z,99.90
2019-03-19T21:14:15.197Z,99.90
2019-03-19T21:16:57.476Z,99.90
2019-03-19T21:19:38.549Z,99.90
2019-03-19T21:22:18.879Z,99.90
2019-03-19T21:24:59.503Z,99.90
2019-03-19T21:27:40.319Z,99.90
2019-03-19T21:30:20.766Z,99.90
2019-03-19T21:33:01.417Z,99.90
2019-03-19T21:35:42.360Z,99.90
2019-03-19T21:38:22.814Z,99.90
2019-03-19T21:41:03.414Z,99.90
2019-03-19T21:43:43.931Z,99.90
2019-03-19T21:46:24.839Z,99.90
2019-03-19T21:49:05.890Z,99.90
2019-03-19T21:51:46.334Z,99.90
2019-03-19T21:54:26.969Z,99.90
2019-03-19T21:57:07.951Z,99.90
2019-03-19T21:59:48.441Z,99.90
2019-03-19T22:02:29.128Z,99.90
2019-03-19T22:05:09.970Z,99.90
2019-03-19T22:07:50.885Z,99.90
2019-03-19T22:10:31.598Z,99.90
2019-03-19T22:13:12.486Z,99.90
2019-03-19T22:15:53.028Z,99.90
2019-03-19T22:18:33.611Z,99.90
2019-03-19T22:21:14.357Z,99.90
2019-03-19T22:26:59.090Z,99.90
2019-03-19T22:29:39.562Z,99.90
2019-03-19T22:32:20.242Z,99.90
2019-03-19T22:35:03.902Z,99.90
2019-03-19T22:37:44.154Z,99.90
2019-03-19T22:40:24.716Z,99.90
2019-03-19T22:43:05.534Z,99.90
2019-03-19T22:45:46.010Z,99.90
2019-03-19T22:48:26.548Z,99.90
2019-03-19T22:51:06.996Z,99.90
2019-03-19T22:53:47.601Z,99.90
2019-03-19T22:56:28.222Z,99.90
2019-03-19T22:59:09.204Z,99.90
2019-03-19T23:01:49.862Z,99.90
2019-03-19T23:04:30.686Z,99.90
2019-03-19T23:07:11.240Z,99.90
2019-03-19T23:09:52.117Z,99.90
2019-03-19T23:12:33.226Z,99.90
2019-03-19T23:15:14.112Z,99.90
2019-03-19T23:17:54.850Z,99.90
2019-03-19T23:20:35.013Z,99.90
2019-03-19T23:23:16.180Z,99.90
2019-03-19T23:25:57.243Z,99.90
2019-03-19T23:28:38.432Z,99.90
2019-03-19T23:31:19.028Z,99.90
2019-03-19T23:33:59.824Z,99.90
2019-03-19T23:36:40.454Z,99.90
2019-03-19T23:39:20.804Z,99.90
2019-03-19T23:42:01.497Z,99.90
2019-03-19T23:44:42.670Z,99.90
2019-03-19T23:47:23.286Z,99.90
2019-03-19T23:50:03.941Z,99.90
2019-03-19T23:52:44.916Z,99.90
2019-03-19T23:55:25.339Z,99.90
2019-03-19T23:58:06.097Z,99.90
